sensor_id;sensor_type;location;lat;lon;timestamp;pressure;altitude;pressure_sealevel;temperature;humidity
13312;BME280;34033;48.672;9.376;2024-01-06T00:00:17;97365.06;;;8.29;85.88
13312;BME280;34033;48.672;9.376;2024-01-06T00:02:43;97363.47;;;8.28;84.23
13312;BME280;34033;48.672;9.376;2024-01-06T00:05:08;97359.53;;;8.25;83.15
13312;BME280;34033;48.672;9.376;2024-01-06T00:07:33;97361.91;;;8.27;83.20
13312;BME280;34033;48.672;9.376;2024-01-06T00:09:59;97368.25;;;8.27;82.50
13312;BME280;34033;48.672;9.376;2024-01-06T00:12:24;97366.69;;;8.30;82.84
13312;BME280;34033;48.672;9.376;2024-01-06T00:14:49;97375.44;;;8.35;83.31
13312;BME280;34033;48.672;9.376;2024-01-06T00:17:16;97371.47;;;8.36;82.99
13312;BME280;34033;48.672;9.376;2024-01-06T00:19:41;97372.25;;;8.33;83.62
13312;BME280;34033;48.672;9.376;2024-01-06T00:22:07;97368.28;;;8.34;84.25
13312;BME280;34033;48.672;9.376;2024-01-06T00:24:33;97373.06;;;8.30;84.53
13312;BME280;34033;48.672;9.376;2024-01-06T00:26:58;97373.06;;;8.30;85.00
13312;BME280;34033;48.672;9.376;2024-01-06T00:29:23;97373.44;;;8.32;84.11
13312;BME280;34033;48.672;9.376;2024-01-06T00:31:49;97374.66;;;8.31;83.96
13312;BME280;34033;48.672;9.376;2024-01-06T00:34:14;97373.03;;;8.34;83.24
13312;BME280;34033;48.672;9.376;2024-01-06T00:36:39;97375.84;;;8.38;82.79
13312;BME280;34033;48.672;9.376;2024-01-06T00:39:04;97380.59;;;8.41;82.41
13312;BME280;34033;48.672;9.376;2024-01-06T00:41:30;97375.41;;;8.43;82.37
13312;BME280;34033;48.672;9.376;2024-01-06T00:43:55;97371.81;;;8.46;82.47
13312;BME280;34033;48.672;9.376;2024-01-06T00:46:20;97380.19;;;8.46;82.95
13312;BME280;34033;48.672;9.376;2024-01-06T00:48:46;97374.59;;;8.46;82.04
13312;BME280;34033;48.672;9.376;2024-01-06T00:51:11;97380.59;;;8.41;81.61
13312;BME280;34033;48.672;9.376;2024-01-06T00:53:36;97376.22;;;8.40;81.65
13312;BME280;34033;48.672;9.376;2024-01-06T00:56:02;97381.78;;;8.40;82.14
13312;BME280;34033;48.672;9.376;2024-01-06T00:58:27;97376.22;;;8.40;81.63
13312;BME280;34033;48.672;9.376;2024-01-06T01:00:53;97375.81;;;8.41;82.34
13312;BME280;34033;48.672;9.376;2024-01-06T01:03:18;97382.56;;;8.44;81.51
13312;BME280;34033;48.672;9.376;2024-01-06T01:05:43;97381.00;;;8.43;82.10
13312;BME280;34033;48.672;9.376;2024-01-06T01:08:09;97383.75;;;8.39;81.62
13312;BME280;34033;48.672;9.376;2024-01-06T01:10:34;97384.97;;;8.34;82.31
13312;BME280;34033;48.672;9.376;2024-01-06T01:12:59;97384.56;;;8.29;83.31
13312;BME280;34033;48.672;9.376;2024-01-06T01:15:24;97384.56;;;8.22;84.32
13312;BME280;34033;48.672;9.376;2024-01-06T01:17:50;97388.97;;;8.12;84.84
13312;BME280;34033;48.672;9.376;2024-01-06T01:20:15;97388.19;;;8.05;85.29
13312;BME280;34033;48.672;9.376;2024-01-06T01:22:40;97391.34;;;8.00;85.85
13312;BME280;34033;48.672;9.376;2024-01-06T01:25:06;97389.00;;;7.98;86.74
13312;BME280;34033;48.672;9.376;2024-01-06T01:27:34;97396.53;;;7.94;86.85
13312;BME280;34033;48.672;9.376;2024-01-06T01:29:59;97399.31;;;7.87;87.17
13312;BME280;34033;48.672;9.376;2024-01-06T01:32:24;97401.69;;;7.85;86.73
13312;BME280;34033;48.672;9.376;2024-01-06T01:34:50;97407.25;;;7.85;86.08
13312;BME280;34033;48.672;9.376;2024-01-06T01:37:15;97408.06;;;7.82;84.83
13312;BME280;34033;48.672;9.376;2024-01-06T01:39:41;97415.22;;;7.86;83.27
13312;BME280;34033;48.672;9.376;2024-01-06T01:42:06;97418.81;;;7.87;82.48
13312;BME280;34033;48.672;9.376;2024-01-06T01:44:31;97407.25;;;7.88;80.94
13312;BME280;34033;48.672;9.376;2024-01-06T01:46:57;97419.59;;;7.87;80.43
13312;BME280;34033;48.672;9.376;2024-01-06T01:49:23;97418.38;;;7.88;79.67
13312;BME280;34033;48.672;9.376;2024-01-06T01:51:48;97427.56;;;7.92;79.39
13312;BME280;34033;48.672;9.376;2024-01-06T01:54:15;97428.75;;;7.91;79.38
13312;BME280;34033;48.672;9.376;2024-01-06T01:56:41;97426.34;;;7.90;79.25
13312;BME280;34033;48.672;9.376;2024-01-06T01:59:12;97427.56;;;7.92;79.60
13312;BME280;34033;48.672;9.376;2024-01-06T02:01:41;97429.53;;;7.95;78.30
13312;BME280;34033;48.672;9.376;2024-01-06T02:04:06;97431.13;;;7.93;77.62
13312;BME280;34033;48.672;9.376;2024-01-06T02:06:32;97440.66;;;7.92;77.94
13312;BME280;34033;48.672;9.376;2024-01-06T02:08:58;97432.72;;;7.87;78.14
13312;BME280;34033;48.672;9.376;2024-01-06T02:11:23;97432.72;;;7.80;78.51
13312;BME280;34033;48.672;9.376;2024-01-06T02:13:49;97422.78;;;7.75;79.24
13312;BME280;34033;48.672;9.376;2024-01-06T02:16:14;97429.91;;;7.73;78.89
13312;BME280;34033;48.672;9.376;2024-01-06T02:18:39;97431.13;;;7.72;79.07
13312;BME280;34033;48.672;9.376;2024-01-06T02:21:06;97439.47;;;7.72;79.49
13312;BME280;34033;48.672;9.376;2024-01-06T02:23:34;97424.75;;;7.68;79.46
13312;BME280;34033;48.672;9.376;2024-01-06T02:26:00;97435.88;;;7.68;79.80
13312;BME280;34033;48.672;9.376;2024-01-06T02:28:25;97446.59;;;7.66;79.88
13312;BME280;34033;48.672;9.376;2024-01-06T02:30:51;97448.56;;;7.62;79.45
13312;BME280;34033;48.672;9.376;2024-01-06T02:33:16;97454.13;;;7.62;79.16
13312;BME280;34033;48.672;9.376;2024-01-06T02:35:42;97462.47;;;7.58;79.69
13312;BME280;34033;48.672;9.376;2024-01-06T02:38:07;97461.28;;;7.55;80.01
13312;BME280;34033;48.672;9.376;2024-01-06T02:40:33;97461.28;;;7.52;80.22
13312;BME280;34033;48.672;9.376;2024-01-06T02:42:59;97460.09;;;7.49;80.32
13312;BME280;34033;48.672;9.376;2024-01-06T02:45:24;97454.53;;;7.49;80.51
13312;BME280;34033;48.672;9.376;2024-01-06T02:47:50;97448.19;;;7.60;80.08
13312;BME280;34033;48.672;9.376;2024-01-06T02:50:15;97448.19;;;7.67;79.47
13312;BME280;34033;48.672;9.376;2024-01-06T02:52:41;97449.81;;;7.71;79.50
13312;BME280;34033;48.672;9.376;2024-01-06T02:55:06;97450.97;;;7.74;80.18
13312;BME280;34033;48.672;9.376;2024-01-06T02:57:32;97450.19;;;7.77;79.98
13312;BME280;34033;48.672;9.376;2024-01-06T02:59:57;97454.97;;;7.80;80.75
13312;BME280;34033;48.672;9.376;2024-01-06T03:02:23;97455.38;;;7.82;80.70
13312;BME280;34033;48.672;9.376;2024-01-06T03:04:48;97450.19;;;7.84;80.32
13312;BME280;34033;48.672;9.376;2024-01-06T03:07:13;97449.38;;;7.83;80.37
13312;BME280;34033;48.672;9.376;2024-01-06T03:09:39;97449.00;;;7.78;81.11
13312;BME280;34033;48.672;9.376;2024-01-06T03:12:06;97447.81;;;7.75;80.84
13312;BME280;34033;48.672;9.376;2024-01-06T03:14:32;97456.53;;;7.74;80.91
13312;BME280;34033;48.672;9.376;2024-01-06T03:16:58;97459.72;;;7.72;81.33
13312;BME280;34033;48.672;9.376;2024-01-06T03:19:23;97458.53;;;7.73;81.29
13312;BME280;34033;48.672;9.376;2024-01-06T03:21:51;97466.91;;;7.77;81.08
13312;BME280;34033;48.672;9.376;2024-01-06T03:24:16;97460.50;;;7.73;81.10
13312;BME280;34033;48.672;9.376;2024-01-06T03:26:42;97452.97;;;7.73;80.75
13312;BME280;34033;48.672;9.376;2024-01-06T03:29:07;97454.56;;;7.71;81.18
13312;BME280;34033;48.672;9.376;2024-01-06T03:31:32;97449.78;;;7.68;81.17
13312;BME280;34033;48.672;9.376;2024-01-06T03:33:58;97455.75;;;7.66;81.09
13312;BME280;34033;48.672;9.376;2024-01-06T03:36:23;97450.16;;;7.63;82.35
13312;BME280;34033;48.672;9.376;2024-01-06T03:38:48;97441.44;;;7.68;82.93
13312;BME280;34033;48.672;9.376;2024-01-06T03:41:14;97440.63;;;7.64;82.63
13312;BME280;34033;48.672;9.376;2024-01-06T03:43:39;97448.59;;;7.65;82.86
13312;BME280;34033;48.672;9.376;2024-01-06T03:46:05;97446.19;;;7.67;82.19
13312;BME280;34033;48.672;9.376;2024-01-06T03:48:30;97449.38;;;7.73;82.10
13312;BME280;34033;48.672;9.376;2024-01-06T03:50:57;97444.22;;;7.68;82.67
13312;BME280;34033;48.672;9.376;2024-01-06T03:53:22;97451.78;;;7.71;82.01
13312;BME280;34033;48.672;9.376;2024-01-06T03:55:47;97459.72;;;7.69;82.07
13312;BME280;34033;48.672;9.376;2024-01-06T03:58:13;97453.34;;;7.65;82.10
13312;BME280;34033;48.672;9.376;2024-01-06T04:00:38;97456.13;;;7.65;82.10
13312;BME280;34033;48.672;9.376;2024-01-06T04:03:03;97454.97;;;7.66;82.02
13312;BME280;34033;48.672;9.376;2024-01-06T04:05:30;97460.53;;;7.66;81.55
13312;BME280;34033;48.672;9.376;2024-01-06T04:07:56;97466.09;;;7.66;81.76
13312;BME280;34033;48.672;9.376;2024-01-06T04:10:21;97458.50;;;7.63;82.17
13312;BME280;34033;48.672;9.376;2024-01-06T04:12:46;97461.28;;;7.63;82.31
13312;BME280;34033;48.672;9.376;2024-01-06T04:15:12;97470.81;;;7.62;82.59
13312;BME280;34033;48.672;9.376;2024-01-06T04:17:37;97464.50;;;7.65;82.02
13312;BME280;34033;48.672;9.376;2024-01-06T04:20:02;97474.44;;;7.66;81.72
13312;BME280;34033;48.672;9.376;2024-01-06T04:22:29;97474.81;;;7.68;80.99
13312;BME280;34033;48.672;9.376;2024-01-06T04:24:54;97475.63;;;7.65;80.97
13312;BME280;34033;48.672;9.376;2024-01-06T04:27:19;97472.41;;;7.63;80.10
13312;BME280;34033;48.672;9.376;2024-01-06T04:29:45;97480.38;;;7.61;80.43
13312;BME280;34033;48.672;9.376;2024-01-06T04:32:10;97479.56;;;7.53;81.01
13312;BME280;34033;48.672;9.376;2024-01-06T04:34:35;97477.97;;;7.52;81.72
13312;BME280;34033;48.672;9.376;2024-01-06T04:37:01;97482.34;;;7.49;82.28
13312;BME280;34033;48.672;9.376;2024-01-06T04:39:26;97483.53;;;7.48;81.81
13312;BME280;34033;48.672;9.376;2024-01-06T04:41:52;97476.38;;;7.51;82.75
13312;BME280;34033;48.672;9.376;2024-01-06T04:44:20;97489.88;;;7.52;82.91
13312;BME280;34033;48.672;9.376;2024-01-06T04:46:46;97483.53;;;7.55;82.32
13312;BME280;34033;48.672;9.376;2024-01-06T04:49:12;97485.91;;;7.57;82.36
13312;BME280;34033;48.672;9.376;2024-01-06T04:51:37;97481.94;;;7.58;82.39
13312;BME280;34033;48.672;9.376;2024-01-06T04:54:03;97489.88;;;7.56;82.07
13312;BME280;34033;48.672;9.376;2024-01-06T04:56:28;97489.88;;;7.56;82.25
13312;BME280;34033;48.672;9.376;2024-01-06T04:58:53;97496.25;;;7.57;82.60
13312;BME280;34033;48.672;9.376;2024-01-06T05:01:19;97487.09;;;7.56;82.44
13312;BME280;34033;48.672;9.376;2024-01-06T05:03:45;97493.47;;;7.53;82.24
13312;BME280;34033;48.672;9.376;2024-01-06T05:06:10;97500.59;;;7.50;82.55
13312;BME280;34033;48.672;9.376;2024-01-06T05:08:35;97501.00;;;7.52;81.77
13312;BME280;34033;48.672;9.376;2024-01-06T05:11:04;97496.25;;;7.49;82.63
13312;BME280;34033;48.672;9.376;2024-01-06T05:13:30;97500.59;;;7.47;82.20
13312;BME280;34033;48.672;9.376;2024-01-06T05:15:55;97503.00;;;7.48;82.71
13312;BME280;34033;48.672;9.376;2024-01-06T05:18:21;97500.22;;;7.48;82.67
13312;BME280;34033;48.672;9.376;2024-01-06T05:20:46;97505.34;;;7.50;82.14
13312;BME280;34033;48.672;9.376;2024-01-06T05:23:12;97515.28;;;7.47;81.90
13312;BME280;34033;48.672;9.376;2024-01-06T05:25:37;97517.66;;;7.45;82.62
13312;BME280;34033;48.672;9.376;2024-01-06T05:28:02;97514.06;;;7.45;82.67
13312;BME280;34033;48.672;9.376;2024-01-06T05:30:28;97519.25;;;7.43;82.11
13312;BME280;34033;48.672;9.376;2024-01-06T05:32:53;97514.88;;;7.42;82.48
13312;BME280;34033;48.672;9.376;2024-01-06T05:35:19;97513.66;;;7.39;82.65
13312;BME280;34033;48.672;9.376;2024-01-06T05:37:44;97510.09;;;7.35;83.12
13312;BME280;34033;48.672;9.376;2024-01-06T05:40:09;97510.88;;;7.36;82.98
13312;BME280;34033;48.672;9.376;2024-01-06T05:42:36;97510.09;;;7.35;83.18
13312;BME280;34033;48.672;9.376;2024-01-06T05:45:01;97513.66;;;7.36;83.36
13312;BME280;34033;48.672;9.376;2024-01-06T05:47:27;97529.53;;;7.35;82.84
13312;BME280;34033;48.672;9.376;2024-01-06T05:49:52;97531.53;;;7.35;83.09
13312;BME280;34033;48.672;9.376;2024-01-06T05:52:17;97534.72;;;7.37;83.15
13312;BME280;34033;48.672;9.376;2024-01-06T05:54:43;97537.47;;;7.33;82.47
13312;BME280;34033;48.672;9.376;2024-01-06T05:57:08;97535.91;;;7.32;83.11
13312;BME280;34033;48.672;9.376;2024-01-06T05:59:34;97550.19;;;7.31;83.16
13312;BME280;34033;48.672;9.376;2024-01-06T06:01:59;97547.41;;;7.31;83.08
13312;BME280;34033;48.672;9.376;2024-01-06T06:04:25;97555.75;;;7.27;83.61
13312;BME280;34033;48.672;9.376;2024-01-06T06:06:50;97553.34;;;7.26;83.93
13312;BME280;34033;48.672;9.376;2024-01-06T06:09:16;97556.13;;;7.22;84.07
13312;BME280;34033;48.672;9.376;2024-01-06T06:11:41;97553.34;;;7.26;84.62
13312;BME280;34033;48.672;9.376;2024-01-06T06:14:06;97551.34;;;7.26;84.15
13312;BME280;34033;48.672;9.376;2024-01-06T06:16:32;97561.69;;;7.29;84.02
13312;BME280;34033;48.672;9.376;2024-01-06T06:18:57;97556.53;;;7.31;84.10
13312;BME280;34033;48.672;9.376;2024-01-06T06:21:23;97560.91;;;7.32;83.52
13312;BME280;34033;48.672;9.376;2024-01-06T06:23:49;97564.50;;;7.33;83.21
13312;BME280;34033;48.672;9.376;2024-01-06T06:26:14;97573.22;;;7.31;83.83
13312;BME280;34033;48.672;9.376;2024-01-06T06:28:40;97581.94;;;7.30;83.62
13312;BME280;34033;48.672;9.376;2024-01-06T06:31:05;97583.53;;;7.27;84.16
13312;BME280;34033;48.672;9.376;2024-01-06T06:33:30;97581.94;;;7.30;83.87
13312;BME280;34033;48.672;9.376;2024-01-06T06:35:55;97586.69;;;7.29;83.87
13312;BME280;34033;48.672;9.376;2024-01-06T06:38:21;97584.34;;;7.31;84.25
13312;BME280;34033;48.672;9.376;2024-01-06T06:40:46;97590.69;;;7.32;83.96
13312;BME280;34033;48.672;9.376;2024-01-06T06:43:12;97595.47;;;7.31;84.16
13312;BME280;34033;48.672;9.376;2024-01-06T06:45:38;97589.09;;;7.31;84.26
13312;BME280;34033;48.672;9.376;2024-01-06T06:48:04;97595.03;;;7.29;83.94
13312;BME280;34033;48.672;9.376;2024-01-06T06:50:29;97592.66;;;7.28;84.48
13312;BME280;34033;48.672;9.376;2024-01-06T06:52:55;97594.22;;;7.25;84.17
13312;BME280;34033;48.672;9.376;2024-01-06T06:55:20;97592.25;;;7.22;84.58
13312;BME280;34033;48.672;9.376;2024-01-06T06:57:45;97596.16;;;7.18;84.31
13312;BME280;34033;48.672;9.376;2024-01-06T07:00:11;97599.34;;;7.16;84.97
13312;BME280;34033;48.672;9.376;2024-01-06T07:02:37;97596.53;;;7.12;85.09
13312;BME280;34033;48.672;9.376;2024-01-06T07:05:02;97600.88;;;7.06;85.44
13312;BME280;34033;48.672;9.376;2024-01-06T07:07:27;97608.03;;;7.07;85.34
13312;BME280;34033;48.672;9.376;2024-01-06T07:09:53;97606.03;;;7.04;85.42
13312;BME280;34033;48.672;9.376;2024-01-06T07:12:18;97606.03;;;7.08;85.62
13312;BME280;34033;48.672;9.376;2024-01-06T07:14:44;97611.53;;;7.01;86.19
13312;BME280;34033;48.672;9.376;2024-01-06T07:17:09;97617.47;;;6.96;85.80
13312;BME280;34033;48.672;9.376;2024-01-06T07:19:36;97619.06;;;6.97;86.27
13312;BME280;34033;48.672;9.376;2024-01-06T07:22:01;97621.09;;;7.00;86.25
13312;BME280;34033;48.672;9.376;2024-01-06T07:24:26;97627.84;;;7.02;87.05
13312;BME280;34033;48.672;9.376;2024-01-06T07:26:52;97628.28;;;7.08;86.62
13312;BME280;34033;48.672;9.376;2024-01-06T07:29:18;97615.16;;;7.05;86.85
13312;BME280;34033;48.672;9.376;2024-01-06T07:31:44;97627.09;;;7.09;86.56
13312;BME280;34033;48.672;9.376;2024-01-06T07:34:09;97628.69;;;7.10;86.47
13312;BME280;34033;48.672;9.376;2024-01-06T07:36:34;97635.44;;;7.09;86.22
13312;BME280;34033;48.672;9.376;2024-01-06T07:39:00;97625.91;;;7.10;86.39
13312;BME280;34033;48.672;9.376;2024-01-06T07:41:25;97623.94;;;7.10;86.43
13312;BME280;34033;48.672;9.376;2024-01-06T07:43:50;97629.88;;;7.09;86.52
13312;BME280;34033;48.672;9.376;2024-01-06T07:46:16;97637.84;;;7.10;86.44
13312;BME280;34033;48.672;9.376;2024-01-06T07:48:41;97644.19;;;7.11;86.64
13312;BME280;34033;48.672;9.376;2024-01-06T07:51:07;97635.44;;;7.12;86.05
13312;BME280;34033;48.672;9.376;2024-01-06T07:53:32;97642.22;;;7.15;86.32
13312;BME280;34033;48.672;9.376;2024-01-06T07:55:58;97637.06;;;7.13;86.42
13312;BME280;34033;48.672;9.376;2024-01-06T07:58:23;97640.63;;;7.14;86.36
13312;BME280;34033;48.672;9.376;2024-01-06T08:00:49;97638.66;;;7.15;86.02
13312;BME280;34033;48.672;9.376;2024-01-06T08:03:14;97643.81;;;7.16;86.06
13312;BME280;34033;48.672;9.376;2024-01-06T08:05:41;97637.09;;;7.21;85.57
13312;BME280;34033;48.672;9.376;2024-01-06T08:08:07;97642.28;;;7.22;85.06
13312;BME280;34033;48.672;9.376;2024-01-06T08:10:32;97637.84;;;7.18;84.79
13312;BME280;34033;48.672;9.376;2024-01-06T08:12:57;97645.41;;;7.17;85.10
13312;BME280;34033;48.672;9.376;2024-01-06T08:15:24;97650.97;;;7.17;85.75
13312;BME280;34033;48.672;9.376;2024-01-06T08:17:49;97648.59;;;7.19;86.04
13312;BME280;34033;48.672;9.376;2024-01-06T08:20:14;97655.75;;;7.20;85.91
13312;BME280;34033;48.672;9.376;2024-01-06T08:22:40;97656.94;;;7.16;86.32
13312;BME280;34033;48.672;9.376;2024-01-06T08:25:05;97655.13;;;7.48;92.32
13312;BME280;34033;48.672;9.376;2024-01-06T08:27:34;97651.22;;;7.67;91.89
13312;BME280;34033;48.672;9.376;2024-01-06T08:30:01;97650.50;;;7.77;87.91
13312;BME280;34033;48.672;9.376;2024-01-06T08:32:26;97653.34;;;7.91;86.42
13312;BME280;34033;48.672;9.376;2024-01-06T08:34:52;97658.56;;;8.07;85.02
13312;BME280;34033;48.672;9.376;2024-01-06T08:37:17;97661.00;;;8.15;83.83
13312;BME280;34033;48.672;9.376;2024-01-06T08:39:42;97664.16;;;8.17;83.17
13312;BME280;34033;48.672;9.376;2024-01-06T08:42:07;97658.97;;;8.12;81.93
13312;BME280;34033;48.672;9.376;2024-01-06T08:44:33;97668.53;;;8.22;82.34
13312;BME280;34033;48.672;9.376;2024-01-06T08:46:58;97667.34;;;8.23;81.32
13312;BME280;34033;48.672;9.376;2024-01-06T08:49:23;97668.53;;;8.18;81.55
13312;BME280;34033;48.672;9.376;2024-01-06T08:51:50;97676.53;;;8.27;81.59
13312;BME280;34033;48.672;9.376;2024-01-06T08:54:15;97673.00;;;8.55;90.20
13312;BME280;34033;48.672;9.376;2024-01-06T08:56:41;97682.63;;;8.75;89.17
13312;BME280;34033;48.672;9.376;2024-01-06T08:59:06;97682.63;;;8.86;82.31
13312;BME280;34033;48.672;9.376;2024-01-06T09:01:31;97681.81;;;8.78;78.38
13312;BME280;34033;48.672;9.376;2024-01-06T09:03:57;97683.78;;;8.67;78.04
13312;BME280;34033;48.672;9.376;2024-01-06T09:06:23;97688.19;;;8.78;79.42
13312;BME280;34033;48.672;9.376;2024-01-06T09:08:48;97684.22;;;8.90;79.42
13312;BME280;34033;48.672;9.376;2024-01-06T09:11:14;97685.38;;;8.82;78.15
13312;BME280;34033;48.672;9.376;2024-01-06T09:13:39;97678.63;;;8.83;78.48
13312;BME280;34033;48.672;9.376;2024-01-06T09:16:05;97674.66;;;9.05;77.99
13312;BME280;34033;48.672;9.376;2024-01-06T09:18:30;97680.63;;;9.04;77.22
13312;BME280;34033;48.672;9.376;2024-01-06T09:20:57;97679.44;;;9.01;76.72
13312;BME280;34033;48.672;9.376;2024-01-06T09:23:22;97683.78;;;8.99;75.62
13312;BME280;34033;48.672;9.376;2024-01-06T09:25:47;97685.41;;;8.96;75.43
13312;BME280;34033;48.672;9.376;2024-01-06T09:28:15;97691.38;;;8.95;75.45
13312;BME280;34033;48.672;9.376;2024-01-06T09:30:40;97690.59;;;8.87;75.50
13312;BME280;34033;48.672;9.376;2024-01-06T09:33:06;97707.66;;;8.71;74.35
13312;BME280;34033;48.672;9.376;2024-01-06T09:35:33;97700.09;;;8.58;75.14
13312;BME280;34033;48.672;9.376;2024-01-06T09:37:58;97709.63;;;8.46;76.02
13312;BME280;34033;48.672;9.376;2024-01-06T09:40:24;97710.44;;;8.61;76.85
13312;BME280;34033;48.672;9.376;2024-01-06T09:42:50;97707.69;;;8.64;76.86
13312;BME280;34033;48.672;9.376;2024-01-06T09:45:16;97706.50;;;8.65;79.83
13312;BME280;34033;48.672;9.376;2024-01-06T09:47:42;97718.41;;;8.59;77.59
13312;BME280;34033;48.672;9.376;2024-01-06T09:50:12;97723.97;;;8.59;76.08
13312;BME280;34033;48.672;9.376;2024-01-06T09:52:41;97712.84;;;9.54;100.00
13312;BME280;34033;48.672;9.376;2024-01-06T09:55:10;97707.88;;;10.29;100.00
13312;BME280;34033;48.672;9.376;2024-01-06T09:57:36;97705.56;;;9.96;100.00
13312;BME280;34033;48.672;9.376;2024-01-06T10:00:02;97711.19;;;9.85;82.61
13312;BME280;34033;48.672;9.376;2024-01-06T10:02:29;97708.41;;;9.78;75.69
13312;BME280;34033;48.672;9.376;2024-01-06T10:04:57;97706.44;;;9.68;72.66
13312;BME280;34033;48.672;9.376;2024-01-06T10:07:23;97707.69;;;9.53;71.18
13312;BME280;34033;48.672;9.376;2024-01-06T10:09:48;97721.63;;;9.39;70.60
13312;BME280;34033;48.672;9.376;2024-01-06T10:12:14;97716.88;;;9.14;69.84
13312;BME280;34033;48.672;9.376;2024-01-06T10:14:39;97720.84;;;9.06;69.32
13312;BME280;34033;48.672;9.376;2024-01-06T10:17:07;97728.03;;;9.14;77.21
13312;BME280;34033;48.672;9.376;2024-01-06T10:19:34;97718.84;;;8.96;68.34
13312;BME280;34033;48.672;9.376;2024-01-06T10:22:00;97720.84;;;9.06;69.53
13312;BME280;34033;48.672;9.376;2024-01-06T10:24:27;97718.06;;;9.06;70.47
13312;BME280;34033;48.672;9.376;2024-01-06T10:26:52;97717.25;;;8.99;68.13
13312;BME280;34033;48.672;9.376;2024-01-06T10:29:18;97712.91;;;9.08;68.38
13312;BME280;34033;48.672;9.376;2024-01-06T10:31:43;97712.88;;;9.01;67.25
13312;BME280;34033;48.672;9.376;2024-01-06T10:34:08;97715.66;;;9.12;67.69
13312;BME280;34033;48.672;9.376;2024-01-06T10:36:35;97704.94;;;9.03;66.33
13312;BME280;34033;48.672;9.376;2024-01-06T10:39:02;97710.47;;;8.89;66.65
13312;BME280;34033;48.672;9.376;2024-01-06T10:41:28;97710.09;;;8.84;65.82
13312;BME280;34033;48.672;9.376;2024-01-06T10:43:58;97704.13;;;8.99;66.08
13312;BME280;34033;48.672;9.376;2024-01-06T10:46:26;97702.53;;;9.12;67.17
13312;BME280;34033;48.672;9.376;2024-01-06T10:48:55;97708.09;;;9.05;66.16
13312;BME280;34033;48.672;9.376;2024-01-06T10:51:23;97708.88;;;8.88;64.94
13312;BME280;34033;48.672;9.376;2024-01-06T10:53:50;97708.50;;;8.90;66.77
13312;BME280;34033;48.672;9.376;2024-01-06T10:56:16;97702.50;;;8.84;66.34
13312;BME280;34033;48.672;9.376;2024-01-06T10:58:45;97705.69;;;8.79;65.99
13312;BME280;34033;48.672;9.376;2024-01-06T11:01:12;97707.25;;;8.52;65.44
13312;BME280;34033;48.672;9.376;2024-01-06T11:03:38;97711.25;;;8.54;66.61
13312;BME280;34033;48.672;9.376;2024-01-06T11:06:07;97702.50;;;8.77;70.98
13312;BME280;34033;48.672;9.376;2024-01-06T11:08:43;97709.31;;;8.87;71.35
13312;BME280;34033;48.672;9.376;2024-01-06T11:11:16;97704.53;;;8.87;67.49
13312;BME280;34033;48.672;9.376;2024-01-06T11:13:42;97698.16;;;8.76;68.36
13312;BME280;34033;48.672;9.376;2024-01-06T11:16:10;97704.91;;;8.86;71.00
13312;BME280;34033;48.672;9.376;2024-01-06T11:18:39;97705.72;;;8.86;70.44
13312;BME280;34033;48.672;9.376;2024-01-06T11:21:19;97701.31;;;8.74;67.24
13312;BME280;34033;48.672;9.376;2024-01-06T11:26:38;97699.72;;;8.63;68.18
13312;BME280;34033;48.672;9.376;2024-01-06T11:29:04;97693.31;;;8.38;69.08
13312;BME280;34033;48.672;9.376;2024-01-06T11:31:32;97702.44;;;8.34;69.63
13312;BME280;34033;48.672;9.376;2024-01-06T11:34:12;97696.41;;;8.29;69.62
13312;BME280;34033;48.672;9.376;2024-01-06T11:36:39;97698.41;;;8.21;69.99
13312;BME280;34033;48.672;9.376;2024-01-06T11:39:34;97693.97;;;8.17;70.93
13312;BME280;34033;48.672;9.376;2024-01-06T11:41:59;97696.75;;;8.17;71.04
13312;BME280;34033;48.672;9.376;2024-01-06T11:44:28;97694.38;;;8.12;71.49
13312;BME280;34033;48.672;9.376;2024-01-06T11:46:56;97688.00;;;8.08;71.76
13312;BME280;34033;48.672;9.376;2024-01-06T11:49:26;97682.38;;;7.97;72.78
13312;BME280;34033;48.672;9.376;2024-01-06T11:51:53;97681.97;;;7.95;74.16
13312;BME280;34033;48.672;9.376;2024-01-06T11:54:21;97680.03;;;8.03;74.65
13312;BME280;34033;48.672;9.376;2024-01-06T11:56:46;97683.63;;;8.10;74.06
13312;BME280;34033;48.672;9.376;2024-01-06T11:59:12;97685.66;;;8.20;82.76
13312;BME280;34033;48.672;9.376;2024-01-06T12:01:38;97676.13;;;8.21;76.41
13312;BME280;34033;48.672;9.376;2024-01-06T12:04:04;97677.59;;;10.14;100.00
13312;BME280;34033;48.672;9.376;2024-01-06T12:06:33;97677.03;;;9.17;76.08
13312;BME280;34033;48.672;9.376;2024-01-06T12:09:12;97675.03;;;9.00;71.41
13312;BME280;34033;48.672;9.376;2024-01-06T12:11:41;97674.66;;;8.73;71.90
13312;BME280;34033;48.672;9.376;2024-01-06T12:14:06;97680.56;;;8.44;72.39
13312;BME280;34033;48.672;9.376;2024-01-06T12:16:32;97672.94;;;8.26;73.70
13312;BME280;34033;48.672;9.376;2024-01-06T12:18:58;97666.59;;;8.29;76.55
13312;BME280;34033;48.672;9.376;2024-01-06T12:21:26;97662.25;;;8.32;75.57
13312;BME280;34033;48.672;9.376;2024-01-06T12:23:51;97661.88;;;8.37;75.78
13312;BME280;34033;48.672;9.376;2024-01-06T12:26:18;97666.59;;;8.26;73.88
13312;BME280;34033;48.672;9.376;2024-01-06T12:28:48;97666.53;;;8.05;74.73
13312;BME280;34033;48.672;9.376;2024-01-06T12:31:14;97671.28;;;8.08;75.82
13312;BME280;34033;48.672;9.376;2024-01-06T12:33:40;97657.38;;;8.04;75.63
13312;BME280;34033;48.672;9.376;2024-01-06T12:36:08;97666.13;;;8.17;75.38
13312;BME280;34033;48.672;9.376;2024-01-06T12:38:37;97652.63;;;8.19;75.37
13312;BME280;34033;48.672;9.376;2024-01-06T12:41:05;97660.19;;;8.22;74.23
13312;BME280;34033;48.672;9.376;2024-01-06T12:43:30;97660.91;;;7.97;74.74
13312;BME280;34033;48.672;9.376;2024-01-06T12:45:56;97657.72;;;7.92;75.83
13312;BME280;34033;48.672;9.376;2024-01-06T12:48:23;97662.06;;;7.82;77.26
13312;BME280;34033;48.672;9.376;2024-01-06T12:50:48;97663.22;;;7.78;77.21
13312;BME280;34033;48.672;9.376;2024-01-06T12:53:14;97656.69;;;8.32;97.03
13312;BME280;34033;48.672;9.376;2024-01-06T12:55:40;97662.16;;;8.14;80.04
13312;BME280;34033;48.672;9.376;2024-01-06T12:58:06;97659.38;;;8.14;78.69
13312;BME280;34033;48.672;9.376;2024-01-06T13:00:33;97662.56;;;8.09;78.74
13312;BME280;34033;48.672;9.376;2024-01-06T13:02:59;97657.78;;;8.17;78.80
13312;BME280;34033;48.672;9.376;2024-01-06T13:05:24;97663.34;;;8.10;78.31